KCSG

Columbus Airport

Columbus, Georgia, USA
METAR KCSG 171558Z 20007KT 10SM FEW022 29/23 A3018 RMK AO2 T02890228
Observed Flight Rules
Aug-17 @ 15:58 UTC (54 minutes ago) Visual Flight Rules
Wind Visibility Clouds
200° at 7 knots 10 miles
  • Few at 2,200' AGL
Temperatures Readings
Current 29°C / 84°F
Dewpoint 23°C / 73°F
Humidity 70%
Altimeter 30.18" Hg
Pressure 1022 hPa
Elevation 135
METAR KCSG 171558Z 20007KT 10SM FEW022 29/23 A3018 RMK AO2 T02890228
Observed Flight Rules
Aug-17 @ 15:58 UTC
(54 minutes ago)
VFR
Wind Visibility
200° at 7 knots 10 miles
Clouds
  • Few at 2,200' AGL
Temperature Dewpoint
29°C / 84°F 23°C / 73°F
Humidity Altimeter Pressure
70% 30.18" Hg 1022 hPa